Time;durP1;ratioP1;P1;durP2;ratioP2;P2;SDS_P1;SDS_P2;PMS_P1;PMS_P2;Temp;Humidity;BMP_temperature;BMP_pressure;BME280_temperature;BME280_humidity;BME280_pressure;Samples;Min_cycle;Max_cycle;Signal;HPM_P1;HPM_P2
2022/09/24 00:00:44;;;;;;;6.50;3.78;;;15.40;99.90;;;;;;7391670;19;20146;-79
2022/09/24 00:03:10;;;;;;;8.63;4.47;;;15.20;99.90;;;;;;7392317;19;20150;-78
2022/09/24 00:05:40;;;;;;;5.43;4.05;;;15.20;99.90;;;;;;7392450;19;20135;-80
2022/09/24 00:08:13;;;;;;;5.65;3.78;;;15.10;99.90;;;;;;7393508;19;20130;-81
2022/09/24 00:10:40;;;;;;;5.28;3.92;;;15.00;99.90;;;;;;7393301;19;20144;-80
2022/09/24 00:13:13;;;;;;;5.85;4.47;;;14.90;99.90;;;;;;7393539;19;20592;-80
2022/09/24 00:15:42;;;;;;;5.38;4.53;;;14.80;99.90;;;;;;7392166;19;20142;-78
2022/09/24 00:18:10;;;;;;;9.98;4.93;;;15.10;99.90;;;;;;7389224;19;20146;-78
2022/09/24 00:20:37;;;;;;;8.90;5.53;;;15.10;99.90;;;;;;7396901;19;20190;-77
2022/09/24 00:23:03;;;;;;;8.57;4.80;;;15.20;99.90;;;;;;7397868;19;20134;-77
2022/09/24 00:28:13;;;;;;;6.15;4.50;;;15.30;99.90;;;;;;7399083;19;20138;-78
2022/09/24 00:30:41;;;;;;;7.22;4.78;;;15.30;99.90;;;;;;7398229;19;20142;-78
2022/09/24 00:33:07;;;;;;;6.43;4.88;;;15.20;99.90;;;;;;7397373;19;20462;-78
2022/09/24 00:35:35;;;;;;;6.80;4.15;;;15.20;99.90;;;;;;7397985;19;20475;-78
2022/09/24 00:38:01;;;;;;;6.40;4.82;;;15.20;99.90;;;;;;7397788;19;20131;-78
2022/09/24 00:40:33;;;;;;;6.70;4.38;;;15.10;99.90;;;;;;7397310;19;20151;-79
2022/09/24 00:42:59;;;;;;;6.50;4.78;;;15.20;99.90;;;;;;7399923;19;20130;-78
2022/09/24 00:45:28;;;;;;;5.72;4.10;;;15.00;99.90;;;;;;7397693;19;20142;-80
2022/09/24 00:47:54;;;;;;;6.15;4.70;;;15.00;99.90;;;;;;7401724;19;20150;-78
2022/09/24 00:50:33;;;;;;;9.00;4.47;;;14.80;99.90;;;;;;7398892;19;20131;-81
2022/09/24 00:53:14;;;;;;;7.00;4.22;;;14.90;99.90;;;;;;7397907;19;20205;-79
2022/09/24 00:55:43;;;;;;;7.03;4.65;;;15.00;99.90;;;;;;7396858;19;20881;-80
2022/09/24 00:58:09;;;;;;;7.93;4.60;;;14.80;99.90;;;;;;7397746;19;20142;-80
2022/09/24 01:00:43;;;;;;;6.40;3.78;;;14.50;99.90;;;;;;7397288;19;20668;-78
2022/09/24 01:03:21;;;;;;;7.65;4.32;;;14.60;99.90;;;;;;7399142;19;20579;-82
2022/09/24 01:05:48;;;;;;;6.97;3.97;;;14.50;99.90;;;;;;7397362;19;20507;-78
2022/09/24 01:08:17;;;;;;;5.82;4.15;;;14.60;99.90;;;;;;7396961;19;20250;-78
2022/09/24 01:11:10;;;;;;;6.35;3.83;;;14.60;99.90;;;;;;7398546;19;20157;-79
2022/09/24 01:13:45;;;;;;;5.00;3.45;;;14.40;99.90;;;;;;7395268;19;20616;-77
2022/09/24 01:16:35;;;;;;;4.57;3.65;;;14.40;99.90;;;;;;7397286;19;20142;-79
2022/09/24 01:19:09;;;;;;;6.07;3.92;;;14.40;99.90;;;;;;7395752;19;20131;-78
2022/09/24 01:21:49;;;;;;;5.80;3.85;;;14.40;99.90;;;;;;7398435;19;20155;-78
2022/09/24 01:25:00;;;;;;;5.07;3.72;;;14.30;99.90;;;;;;7396606;19;20174;-78
2022/09/24 01:27:48;;;;;;;4.90;3.97;;;14.40;99.90;;;;;;7397450;19;20607;-78
2022/09/24 01:30:14;;;;;;;5.32;4.18;;;14.60;99.90;;;;;;7394943;19;20139;-78
2022/09/24 01:33:02;;;;;;;7.78;4.00;;;14.70;99.90;;;;;;7395878;19;20151;-81
2022/09/24 01:35:34;;;;;;;6.20;4.50;;;14.20;99.90;;;;;;7396473;19;20139;-78
2022/09/24 01:38:23;;;;;;;6.63;4.38;;;14.20;99.90;;;;;;7393118;19;20178;-78
2022/09/24 01:40:51;;;;;;;5.57;4.25;;;14.30;99.90;;;;;;7396566;19;20158;-78
2022/09/24 01:43:24;;;;;;;5.38;4.20;;;14.30;99.90;;;;;;7397298;19;20506;-77
2022/09/24 01:45:51;;;;;;;5.05;3.95;;;14.10;99.90;;;;;;7396997;19;20135;-79
2022/09/24 01:48:20;;;;;;;6.57;4.13;;;14.10;99.90;;;;;;7395073;19;20135;-77
2022/09/24 01:51:12;;;;;;;5.97;4.03;;;14.30;99.90;;;;;;7396936;19;20146;-78
2022/09/24 01:54:11;;;;;;;5.07;4.03;;;13.90;99.90;;;;;;7396177;19;20157;-77
2022/09/24 01:57:15;;;;;;;5.75;4.28;;;14.00;99.90;;;;;;7394783;19;20198;-78
2022/09/24 01:59:48;;;;;;;5.45;4.28;;;13.90;99.90;;;;;;7395123;19;20156;-78
2022/09/24 02:02:36;;;;;;;4.95;3.65;;;14.10;99.90;;;;;;7396143;19;20611;-77
2022/09/24 02:05:12;;;;;;;6.75;4.38;;;13.70;99.90;;;;;;7395075;19;20155;-77
2022/09/24 02:07:46;;;;;;;4.25;3.67;;;13.70;99.90;;;;;;7397087;19;20146;-78
2022/09/24 02:10:18;;;;;;;5.13;4.28;;;13.80;99.90;;;;;;7395087;19;20138;-77
2022/09/24 02:12:51;;;;;;;5.57;4.28;;;13.70;99.90;;;;;;7395734;19;20137;-78
2022/09/24 02:15:45;;;;;;;5.47;4.30;;;13.60;99.90;;;;;;7392022;19;20231;-78
2022/09/24 02:18:15;;;;;;;6.15;4.53;;;13.50;99.90;;;;;;7393844;19;20222;-78
2022/09/24 02:20:43;;;;;;;5.60;4.13;;;13.60;99.90;;;;;;7395321;19;20194;-78
2022/09/24 02:23:10;;;;;;;5.32;4.10;;;13.60;99.90;;;;;;7394367;19;20198;-78
2022/09/24 02:25:50;;;;;;;5.35;4.03;;;13.60;99.90;;;;;;7391245;19;20188;-77
2022/09/24 02:28:17;;;;;;;8.38;4.90;;;13.90;99.90;;;;;;7394261;19;20150;-79
2022/09/24 02:30:49;;;;;;;6.18;4.05;;;13.70;99.90;;;;;;7393767;19;20139;-78
2022/09/24 02:36:00;;;;;;;6.57;4.05;;;14.50;99.90;;;;;;7395371;19;20154;-79
2022/09/24 02:38:26;;;;;;;5.07;4.15;;;14.40;99.90;;;;;;7393860;19;20147;-82
2022/09/24 02:40:53;;;;;;;6.30;3.90;;;14.40;99.90;;;;;;7393046;19;20163;-81
2022/09/24 02:43:19;;;;;;;7.95;4.60;;;14.20;99.90;;;;;;7392101;19;20168;-81
2022/09/24 02:45:47;;;;;;;5.13;4.38;;;14.10;99.90;;;;;;7392401;19;20870;-81
2022/09/24 02:48:13;;;;;;;5.22;4.65;;;14.40;99.90;;;;;;7393296;19;20167;-81
2022/09/24 02:50:39;;;;;;;6.53;4.22;;;14.40;99.90;;;;;;7392880;19;20131;-81
2022/09/24 02:53:04;;;;;;;5.93;4.70;;;14.50;99.90;;;;;;7394534;19;20592;-81
2022/09/24 02:55:30;;;;;;;7.13;5.00;;;14.50;99.90;;;;;;7395751;19;20135;-81
2022/09/24 02:57:56;;;;;;;6.07;4.90;;;14.60;99.90;;;;;;7390326;19;20138;-81
2022/09/24 03:00:22;;;;;;;7.03;4.65;;;14.40;99.90;;;;;;7393167;19;20161;-82
2022/09/24 03:02:47;;;;;;;5.68;4.70;;;14.30;99.90;;;;;;7393669;19;20147;-82
2022/09/24 03:05:17;;;;;;;6.40;4.80;;;14.50;99.90;;;;;;7392715;19;20156;-82
2022/09/24 03:07:44;;;;;;;8.70;4.75;;;14.50;99.90;;;;;;7392416;19;20153;-80
2022/09/24 03:10:11;;;;;;;5.95;4.95;;;14.40;99.90;;;;;;7394552;19;20790;-81
2022/09/24 03:12:37;;;;;;;7.47;5.20;;;14.60;99.90;;;;;;7392548;19;20155;-80
2022/09/24 03:15:05;;;;;;;7.53;5.50;;;14.60;99.90;;;;;;7391110;19;20143;-82
2022/09/24 03:17:30;;;;;;;7.85;5.97;;;14.60;99.90;;;;;;7394009;19;20584;-81
2022/09/24 03:19:56;;;;;;;7.35;5.97;;;14.60;99.90;;;;;;7391825;19;20149;-81
2022/09/24 03:22:22;;;;;;;8.30;6.07;;;14.60;99.90;;;;;;7394569;19;20255;-80
2022/09/24 03:24:48;;;;;;;7.30;5.20;;;14.50;99.90;;;;;;7391983;19;20227;-82
2022/09/24 03:27:15;;;;;;;8.07;6.23;;;14.40;99.90;;;;;;7394001;19;20182;-82
2022/09/24 03:32:25;;;;;;;7.37;6.13;;;14.40;99.90;;;;;;7393010;19;20592;-82
2022/09/24 03:34:51;;;;;;;8.65;6.07;;;14.30;99.90;;;;;;7390313;19;20172;-81
2022/09/24 03:37:16;;;;;;;11.48;6.18;;;14.40;99.90;;;;;;7393262;19;20587;-82
2022/09/24 03:39:42;;;;;;;6.78;5.60;;;14.40;99.90;;;;;;7392229;19;20150;-81
2022/09/24 03:42:08;;;;;;;6.65;4.80;;;14.50;99.90;;;;;;7392992;19;20295;-82
2022/09/24 03:44:34;;;;;;;7.03;5.45;;;14.50;99.90;;;;;;7393821;19;20242;-82
2022/09/24 03:47:00;;;;;;;10.18;5.82;;;14.50;99.90;;;;;;7396766;19;20146;-84
2022/09/24 03:49:26;;;;;;;7.40;6.05;;;14.60;99.90;;;;;;7393738;19;20158;-83
2022/09/24 03:51:53;;;;;;;7.45;5.43;;;14.50;99.90;;;;;;7395809;19;20202;-83
2022/09/24 03:54:19;;;;;;;7.18;5.35;;;14.50;99.90;;;;;;7392598;19;20138;-83
2022/09/24 03:56:44;;;;;;;7.38;5.43;;;14.50;99.90;;;;;;7395279;19;20127;-83
2022/09/24 03:59:10;;;;;;;6.60;5.65;;;14.60;99.90;;;;;;7393631;19;20143;-81
2022/09/24 04:01:37;;;;;;;8.07;6.03;;;14.60;99.90;;;;;;7394354;19;20603;-82
2022/09/24 04:04:05;;;;;;;7.20;5.75;;;14.70;99.90;;;;;;7392231;19;20200;-81
2022/09/24 04:06:31;;;;;;;7.00;6.00;;;14.60;99.90;;;;;;7392917;19;20146;-81
2022/09/24 04:08:57;;;;;;;6.80;6.03;;;14.40;99.90;;;;;;7390444;19;20138;-81
2022/09/24 04:11:23;;;;;;;8.70;6.40;;;14.50;99.90;;;;;;7394447;19;20735;-81
2022/09/24 04:13:50;;;;;;;7.13;5.72;;;14.50;99.90;;;;;;7391515;19;20159;-81
2022/09/24 04:16:16;;;;;;;5.97;5.20;;;14.40;99.90;;;;;;7395509;19;20138;-81
2022/09/24 04:18:42;;;;;;;6.00;5.40;;;14.50;99.90;;;;;;7391945;19;20588;-81
2022/09/24 04:21:08;;;;;;;8.32;6.10;;;14.60;99.90;;;;;;7393574;19;20190;-82
2022/09/24 04:23:33;;;;;;;8.02;5.55;;;14.50;99.90;;;;;;7392150;19;20194;-81
2022/09/24 04:26:01;;;;;;;6.60;5.53;;;14.60;99.90;;;;;;7390738;19;20170;-81
2022/09/24 04:28:28;;;;;;;9.68;5.78;;;14.60;99.90;;;;;;7389938;19;20146;-80
2022/09/24 04:30:54;;;;;;;7.93;5.60;;;14.70;99.90;;;;;;7389381;19;20187;-81
2022/09/24 04:33:20;;;;;;;8.02;6.32;;;14.70;99.90;;;;;;7390755;19;20162;-83
2022/09/24 04:35:46;;;;;;;6.93;5.57;;;14.70;99.90;;;;;;7392278;19;20506;-83
2022/09/24 04:38:12;;;;;;;6.70;5.50;;;14.60;99.90;;;;;;7392027;19;20210;-82
2022/09/24 04:40:38;;;;;;;8.45;6.20;;;14.60;99.90;;;;;;7390713;19;20492;-83
2022/09/24 04:43:05;;;;;;;9.07;5.88;;;14.60;99.90;;;;;;7390529;19;20178;-82
2022/09/24 04:45:32;;;;;;;6.18;5.53;;;14.60;99.90;;;;;;7391309;19;20154;-84
2022/09/24 04:47:59;;;;;;;7.10;5.55;;;14.50;99.90;;;;;;7390731;19;20560;-83
2022/09/24 04:50:27;;;;;;;7.00;5.63;;;14.50;99.90;;;;;;7391574;19;20202;-83
2022/09/24 04:52:54;;;;;;;8.98;5.60;;;14.70;99.90;;;;;;7390727;19;20154;-84
2022/09/24 04:55:21;;;;;;;6.88;5.20;;;14.70;99.90;;;;;;7389399;19;20150;-83
2022/09/24 04:57:47;;;;;;;8.00;5.07;;;14.30;99.90;;;;;;7390637;19;20306;-81
2022/09/24 05:00:16;;;;;;;6.15;4.55;;;14.30;99.90;;;;;;7391606;19;20208;-85
2022/09/24 05:02:42;;;;;;;6.97;5.00;;;14.00;99.90;;;;;;7393676;19;20187;-82
2022/09/24 05:05:10;;;;;;;7.10;5.22;;;14.40;99.90;;;;;;7392651;19;20579;-81
2022/09/24 05:07:36;;;;;;;8.38;6.03;;;14.50;99.90;;;;;;7401087;19;20149;-83
2022/09/24 05:10:03;;;;;;;8.90;5.93;;;14.50;99.90;;;;;;7402532;19;20142;-82
2022/09/24 05:12:29;;;;;;;13.35;6.00;;;14.50;99.90;;;;;;7400224;19;20187;-83
2022/09/24 05:14:55;;;;;;;12.85;6.50;;;14.40;99.90;;;;;;7398304;19;20161;-82
2022/09/24 05:17:21;;;;;;;7.65;5.53;;;14.40;99.90;;;;;;7400801;19;20139;-81
2022/09/24 05:19:46;;;;;;;14.88;5.88;;;14.40;99.90;;;;;;7399496;19;20459;-82
2022/09/24 05:22:12;;;;;;;7.03;5.05;;;14.40;99.90;;;;;;7401205;19;20158;-82
2022/09/24 05:24:41;;;;;;;18.83;5.82;;;14.50;99.90;;;;;;7397930;19;20155;-82
2022/09/24 05:27:08;;;;;;;13.20;5.80;;;14.50;99.90;;;;;;7400013;19;20580;-82
2022/09/24 05:29:39;;;;;;;8.48;5.82;;;14.60;99.90;;;;;;7399441;19;20135;-83
2022/09/24 05:32:07;;;;;;;7.78;6.22;;;14.60;99.90;;;;;;7399488;19;20700;-81
2022/09/24 05:34:33;;;;;;;8.63;6.57;;;14.60;99.90;;;;;;7398993;19;20135;-82
2022/09/24 05:37:00;;;;;;;9.27;5.40;;;14.70;99.90;;;;;;7396985;19;20138;-80
2022/09/24 05:39:27;;;;;;;8.27;5.53;;;14.60;99.90;;;;;;7396371;19;20161;-81
2022/09/24 05:41:53;;;;;;;7.25;5.63;;;14.60;99.90;;;;;;7397831;19;20134;-80
2022/09/24 05:44:20;;;;;;;7.45;5.50;;;14.60;99.90;;;;;;7396663;19;20131;-81
2022/09/24 05:46:50;;;;;;;6.85;5.50;;;14.60;99.90;;;;;;7398160;19;20167;-81
2022/09/24 05:49:16;;;;;;;8.82;5.47;;;14.60;99.90;;;;;;7394278;19;20167;-81
2022/09/24 05:51:42;;;;;;;6.68;5.05;;;14.60;99.90;;;;;;7394533;19;20154;-81
2022/09/24 05:54:10;;;;;;;7.00;5.60;;;14.60;99.90;;;;;;7394603;19;20565;-82
2022/09/24 05:56:36;;;;;;;7.43;5.60;;;14.80;99.90;;;;;;7398013;19;20148;-81
2022/09/24 05:59:03;;;;;;;7.55;4.88;;;14.50;99.90;;;;;;7393568;19;20152;-82
2022/09/24 06:01:28;;;;;;;8.48;5.30;;;14.60;99.90;;;;;;7396259;19;20126;-82
2022/09/24 06:03:55;;;;;;;6.10;5.22;;;14.60;99.90;;;;;;7395793;19;20131;-80
2022/09/24 06:06:22;;;;;;;7.03;5.35;;;14.70;99.90;;;;;;7395716;19;20205;-81
2022/09/24 06:08:50;;;;;;;5.85;5.20;;;14.70;99.90;;;;;;7397770;19;20153;-81
2022/09/24 06:11:17;;;;;;;8.85;5.65;;;14.70;99.90;;;;;;7396004;19;20130;-84
2022/09/24 06:13:43;;;;;;;7.50;5.25;;;14.70;99.90;;;;;;7396095;19;20469;-81
2022/09/24 06:16:11;;;;;;;6.10;4.65;;;14.70;99.90;;;;;;7395423;19;20130;-81
2022/09/24 06:18:39;;;;;;;7.15;5.72;;;14.70;99.90;;;;;;7395118;19;20153;-82
2022/09/24 06:21:11;;;;;;;7.85;5.80;;;15.00;99.90;;;;;;7395649;19;20588;-82
2022/09/24 06:23:37;;;;;;;7.07;5.85;;;14.80;99.90;;;;;;7395013;19;20142;-81
2022/09/24 06:26:06;;;;;;;6.68;5.35;;;14.60;99.90;;;;;;7403847;19;20147;-83
2022/09/24 06:28:33;;;;;;;8.27;5.88;;;14.70;99.90;;;;;;7394223;19;20146;-82
2022/09/24 06:30:59;;;;;;;6.45;5.63;;;14.80;99.90;;;;;;7395036;19;20142;-85
2022/09/24 06:33:25;;;;;;;7.47;5.63;;;14.80;99.90;;;;;;7394154;19;20149;-85
2022/09/24 06:35:52;;;;;;;9.23;6.17;;;15.00;99.90;;;;;;7392904;19;20147;-85
2022/09/24 06:38:18;;;;;;;7.80;6.10;;;14.70;99.90;;;;;;7394223;19;20134;-84
2022/09/24 06:40:47;;;;;;;8.20;6.18;;;14.80;99.90;;;;;;7394346;19;20139;-84
2022/09/24 06:43:14;;;;;;;7.55;5.55;;;14.80;99.90;;;;;;7393291;19;20138;-84
2022/09/24 06:45:41;;;;;;;8.73;6.10;;;14.80;99.90;;;;;;7394356;19;20151;-82
2022/09/24 06:48:09;;;;;;;6.38;5.45;;;14.70;99.90;;;;;;7393233;19;20139;-83
2022/09/24 06:50:39;;;;;;;6.93;5.63;;;14.80;99.90;;;;;;7392977;19;20794;-83
2022/09/24 06:53:06;;;;;;;6.82;5.57;;;14.70;99.90;;;;;;7392524;19;20159;-83
2022/09/24 06:55:32;;;;;;;7.18;5.25;;;14.70;99.90;;;;;;7395039;19;20134;-84
2022/09/24 06:58:04;;;;;;;5.85;5.25;;;14.80;99.90;;;;;;7392276;19;20130;-84
2022/09/24 07:00:30;;;;;;;10.02;6.15;;;14.70;99.90;;;;;;7391613;19;20542;-85
2022/09/24 07:02:57;;;;;;;9.73;5.82;;;14.80;99.90;;;;;;7395165;19;20141;-85
2022/09/24 07:05:22;;;;;;;8.18;6.25;;;14.90;99.90;;;;;;7392890;19;20164;-84
2022/09/24 07:07:48;;;;;;;6.97;5.40;;;15.00;99.90;;;;;;7393719;19;20678;-85
2022/09/24 07:10:16;;;;;;;6.53;5.32;;;14.90;99.90;;;;;;7392137;19;20143;-84
2022/09/24 07:12:42;;;;;;;6.28;5.45;;;15.00;99.90;;;;;;7393506;19;20146;-84
2022/09/24 07:15:09;;;;;;;9.68;5.47;;;15.00;99.90;;;;;;7392933;19;20138;-85
2022/09/24 07:17:35;;;;;;;7.85;6.00;;;15.00;99.90;;;;;;7395069;19;20157;-83
2022/09/24 07:20:01;;;;;;;6.30;5.25;;;15.00;99.90;;;;;;7394827;19;20142;-86
2022/09/24 07:22:27;;;;;;;7.93;5.72;;;15.00;99.90;;;;;;7395138;19;20218;-83
2022/09/24 07:24:52;;;;;;;10.90;5.80;;;15.00;99.90;;;;;;7394404;19;20658;-85
2022/09/24 07:27:20;;;;;;;6.90;5.50;;;15.00;99.90;;;;;;7393663;19;20166;-84
2022/09/24 07:29:49;;;;;;;7.10;5.80;;;15.10;99.90;;;;;;7393126;19;20600;-83
2022/09/24 07:32:18;;;;;;;7.82;5.80;;;15.00;99.90;;;;;;7394574;19;20142;-84
2022/09/24 07:34:44;;;;;;;8.63;5.60;;;15.00;99.90;;;;;;7392799;19;20131;-83
2022/09/24 07:37:10;;;;;;;5.88;5.25;;;15.10;99.90;;;;;;7395422;19;20511;-84
2022/09/24 07:39:37;;;;;;;6.75;5.47;;;15.20;99.90;;;;;;7393652;19;20161;-85
2022/09/24 07:42:04;;;;;;;10.02;5.25;;;15.20;99.90;;;;;;7392223;19;20180;-84
2022/09/24 07:44:30;;;;;;;7.65;5.70;;;15.20;99.90;;;;;;7391730;19;20139;-84
2022/09/24 07:46:57;;;;;;;8.05;5.60;;;15.50;99.90;;;;;;7390707;19;20158;-84
2022/09/24 07:49:23;;;;;;;6.85;5.28;;;15.30;99.90;;;;;;7391873;19;20138;-82
2022/09/24 07:51:49;;;;;;;6.55;5.28;;;15.30;99.90;;;;;;7391279;19;20146;-86
2022/09/24 07:54:15;;;;;;;7.82;5.97;;;15.30;99.90;;;;;;7389849;19;20495;-87
2022/09/24 07:56:41;;;;;;;8.70;6.15;;;15.40;99.90;;;;;;7394000;19;20678;-85
2022/09/24 07:59:10;;;;;;;6.40;5.50;;;15.40;99.90;;;;;;7392761;19;20194;-85
2022/09/24 08:01:36;;;;;;;7.70;5.73;;;15.30;99.90;;;;;;7392708;19;20142;-82
2022/09/24 08:04:03;;;;;;;8.38;6.05;;;15.20;99.90;;;;;;7390554;19;20612;-84
2022/09/24 08:06:32;;;;;;;7.82;5.43;;;15.30;99.90;;;;;;7393876;19;20202;-86
2022/09/24 08:08:58;;;;;;;10.10;5.73;;;15.30;99.90;;;;;;7410007;19;20135;-85
2022/09/24 08:11:24;;;;;;;6.20;5.60;;;15.20;99.90;;;;;;7391531;19;20134;-82
2022/09/24 08:13:50;;;;;;;7.97;5.82;;;15.30;99.90;;;;;;7388446;19;20144;-83
2022/09/24 08:16:16;;;;;;;7.75;6.07;;;15.30;99.90;;;;;;7389456;19;20139;-82
2022/09/24 08:18:42;;;;;;;7.03;5.93;;;15.30;99.90;;;;;;7391811;19;20134;-83
2022/09/24 08:21:10;;;;;;;7.22;5.57;;;15.60;99.90;;;;;;7390878;19;20139;-82
2022/09/24 08:23:39;;;;;;;8.45;6.25;;;15.30;99.90;;;;;;7388699;19;20141;-84
2022/09/24 08:26:06;;;;;;;8.52;6.00;;;15.40;99.90;;;;;;7390825;19;20225;-83
2022/09/24 08:28:32;;;;;;;8.27;6.03;;;15.30;99.90;;;;;;7390317;19;20162;-81
2022/09/24 08:31:02;;;;;;;7.25;5.50;;;15.50;99.90;;;;;;7394806;19;20127;-81
2022/09/24 08:33:30;;;;;;;6.50;5.68;;;15.50;99.90;;;;;;7391895;19;20151;-87
2022/09/24 08:35:58;;;;;;;7.05;5.90;;;15.60;99.90;;;;;;7391719;19;20238;-86
2022/09/24 08:38:24;;;;;;;8.07;5.68;;;15.70;99.90;;;;;;7404424;19;20142;-85
2022/09/24 08:41:30;;;;;;;6.57;5.68;;;16.00;99.90;;;;;;7410740;19;20215;-85
2022/09/24 08:47:21;;;;;;;7.90;5.40;;;16.00;99.90;;;;;;7397869;19;20173;-84
2022/09/24 08:47:21;;;;;;;7.30;5.38;;;16.10;99.90;;;;;;7399670;19;20245;-83
2022/09/24 08:49:54;;;;;;;10.48;6.80;;;16.20;99.90;;;;;;7396056;19;20188;-84
2022/09/24 08:52:28;;;;;;;7.55;6.25;;;16.30;99.90;;;;;;7398904;19;20143;-84
2022/09/24 08:55:01;;;;;;;8.52;6.15;;;16.50;99.90;;;;;;7395548;19;21343;-88
2022/09/24 08:57:27;;;;;;;8.63;6.03;;;16.60;99.90;;;;;;7399280;19;20174;-85
2022/09/24 08:59:53;;;;;;;8.70;6.00;;;16.60;99.90;;;;;;7392208;19;20151;-83
2022/09/24 09:02:32;;;;;;;7.53;5.13;;;16.70;99.90;;;;;;7397059;19;20234;-86
2022/09/24 09:05:28;;;;;;;9.75;6.13;;;16.70;99.90;;;;;;7399395;19;20131;-82
2022/09/24 09:08:29;;;;;;;8.75;5.57;;;16.80;99.90;;;;;;7395084;19;20154;-75
2022/09/24 09:11:00;;;;;;;6.78;5.38;;;16.70;99.90;;;;;;7389012;19;20707;-77
2022/09/24 09:13:38;;;;;;;6.05;4.97;;;16.70;99.90;;;;;;7394384;19;20595;-76
2022/09/24 09:16:28;;;;;;;7.18;5.22;;;16.80;99.90;;;;;;7390784;19;20638;-76
2022/09/24 09:19:07;;;;;;;7.78;5.97;;;16.90;99.90;;;;;;7388500;19;20505;-75
2022/09/24 09:21:51;;;;;;;6.97;5.38;;;16.80;99.90;;;;;;7390712;19;20150;-76
2022/09/24 09:24:18;;;;;;;6.13;4.65;;;16.80;99.90;;;;;;7397408;19;20163;-76
2022/09/24 09:26:48;;;;;;;8.27;5.25;;;16.80;99.90;;;;;;7394490;19;20153;-75
2022/09/24 09:29:16;;;;;;;7.65;5.45;;;16.90;99.90;;;;;;7393401;19;22166;-75
2022/09/24 09:32:08;;;;;;;8.25;4.72;;;16.90;99.90;;;;;;7387464;19;20154;-77
2022/09/24 09:35:13;;;;;;;3.15;2.70;;;16.80;99.90;;;;;;7394843;19;20135;-75
2022/09/24 09:37:43;;;;;;;3.75;2.78;;;16.70;99.90;;;;;;7399392;19;20790;-76
2022/09/24 09:40:25;;;;;;;2.28;1.80;;;16.70;99.90;;;;;;7392630;19;20134;-75
2022/09/24 09:43:01;;;;;;;2.40;1.50;;;16.70;99.90;;;;;;7394567;19;20135;-75
2022/09/24 09:45:55;;;;;;;4.38;1.63;;;16.70;99.90;;;;;;7395892;19;20134;-75
2022/09/24 09:48:26;;;;;;;2.85;1.85;;;16.80;99.90;;;;;;7393931;19;20134;-76
2022/09/24 09:51:04;;;;;;;2.42;1.70;;;16.80;99.90;;;;;;7391876;19;20134;-75
2022/09/24 09:53:31;;;;;;;2.20;1.92;;;16.80;99.90;;;;;;7391409;19;20122;-75
2022/09/24 09:56:06;;;;;;;2.00;1.70;;;16.90;99.90;;;;;;7395284;19;20157;-74
2022/09/24 09:58:35;;;;;;;2.05;1.70;;;16.90;99.90;;;;;;7391134;19;20157;-76
2022/09/24 10:01:12;;;;;;;3.92;2.50;;;17.00;99.90;;;;;;7392748;19;20147;-82
2022/09/24 10:03:45;;;;;;;2.47;2.20;;;17.10;99.90;;;;;;7394084;19;20177;-84
2022/09/24 10:06:26;;;;;;;2.60;1.77;;;16.90;99.90;;;;;;7387768;19;20138;-86
2022/09/24 10:08:52;;;;;;;3.08;1.75;;;17.00;99.90;;;;;;7394315;19;20130;-86
2022/09/24 10:11:18;;;;;;;2.75;1.90;;;17.10;99.90;;;;;;7393876;19;20602;-82
2022/09/24 10:13:44;;;;;;;2.50;1.88;;;16.90;99.90;;;;;;7392300;19;20139;-84
2022/09/24 10:16:14;;;;;;;2.40;1.95;;;17.00;99.90;;;;;;7391293;19;20491;-83
2022/09/24 10:18:49;;;;;;;2.25;1.80;;;17.10;99.90;;;;;;7391666;19;20494;-83
2022/09/24 10:21:34;;;;;;;4.35;2.50;;;17.20;99.90;;;;;;7393000;19;20147;-79
2022/09/24 10:24:10;;;;;;;2.53;2.20;;;16.90;99.90;;;;;;7393029;19;20626;-83
2022/09/24 10:26:41;;;;;;;3.83;2.10;;;17.00;99.90;;;;;;7393566;19;20157;-80
2022/09/24 10:32:16;;;;;;;3.22;2.30;;;16.90;99.90;;;;;;7391738;19;20541;-82
2022/09/24 10:34:42;;;;;;;3.53;2.63;;;16.80;99.90;;;;;;7390855;19;20525;-81
2022/09/24 10:37:15;;;;;;;4.25;2.70;;;16.90;99.90;;;;;;7392878;19;20131;-83
2022/09/24 10:39:41;;;;;;;3.15;2.42;;;16.90;99.90;;;;;;7393236;19;20290;-81
2022/09/24 10:42:37;;;;;;;2.97;2.20;;;16.90;99.90;;;;;;7392237;19;20168;-81
2022/09/24 10:45:12;;;;;;;2.72;2.33;;;16.90;99.90;;;;;;7389849;19;20647;-83
2022/09/24 10:48:02;;;;;;;2.70;2.20;;;16.90;99.90;;;;;;7390894;19;20626;-81
2022/09/24 10:50:53;;;;;;;3.08;2.55;;;16.90;99.90;;;;;;7389609;19;20147;-82
2022/09/24 10:53:31;;;;;;;3.03;2.33;;;17.00;99.90;;;;;;7390968;19;20137;-81
2022/09/24 10:56:08;;;;;;;2.95;2.20;;;17.10;99.90;;;;;;7395707;19;20153;-82
2022/09/24 10:58:43;;;;;;;4.07;2.53;;;17.10;99.90;;;;;;7395644;19;20173;-80
2022/09/24 11:01:31;;;;;;;2.80;2.17;;;17.00;99.90;;;;;;7397555;19;20858;-81
2022/09/24 11:04:12;;;;;;;3.03;1.80;;;16.90;99.90;;;;;;7393569;19;20142;-83
2022/09/24 11:06:51;;;;;;;3.03;1.90;;;16.90;99.90;;;;;;7394827;19;20194;-81
2022/09/24 11:09:23;;;;;;;3.65;1.90;;;17.00;99.90;;;;;;7389779;19;20146;-80
2022/09/24 11:12:14;;;;;;;2.35;1.80;;;17.00;99.90;;;;;;7390099;19;20147;-83
2022/09/24 11:14:57;;;;;;;7.47;4.70;;;17.00;99.90;;;;;;7391512;19;20516;-80
2022/09/24 11:17:35;;;;;;;4.60;2.58;;;17.00;99.90;;;;;;7394604;19;20475;-81
2022/09/24 11:20:23;;;;;;;3.10;1.80;;;17.00;99.90;;;;;;7393232;19;20157;-80
2022/09/24 11:23:26;;;;;;;3.38;1.88;;;17.00;99.90;;;;;;7395128;19;20126;-80
2022/09/24 11:26:02;;;;;;;3.50;2.00;;;17.00;99.90;;;;;;7390221;19;20175;-82
2022/09/24 11:29:06;;;;;;;1.60;1.50;;;17.00;99.90;;;;;;7390191;19;20137;-78
2022/09/24 11:32:12;;;;;;;4.85;1.70;;;17.10;99.90;;;;;;7393421;19;20142;-82
2022/09/24 11:34:49;;;;;;;2.53;1.60;;;17.00;99.90;;;;;;7387777;19;20138;-82
2022/09/24 11:37:38;;;;;;;3.22;1.75;;;17.00;99.90;;;;;;7390413;19;20154;-81
2022/09/24 11:40:45;;;;;;;1.65;1.50;;;17.00;99.90;;;;;;7389963;19;20142;-81
2022/09/24 11:43:45;;;;;;;2.13;1.67;;;17.10;99.90;;;;;;7390055;19;20135;-83
2022/09/24 11:46:26;;;;;;;2.22;1.63;;;17.10;99.90;;;;;;7391025;19;20135;-81
2022/09/24 11:49:12;;;;;;;2.05;1.50;;;17.00;99.90;;;;;;7392161;19;20131;-82
2022/09/24 11:52:02;;;;;;;2.38;1.40;;;17.00;99.90;;;;;;7389887;19;20632;-82
2022/09/24 11:54:55;;;;;;;3.65;2.00;;;17.00;99.90;;;;;;7387391;19;20142;-82
2022/09/24 11:57:27;;;;;;;1.83;1.67;;;17.10;99.90;;;;;;7390064;19;20749;-81
2022/09/24 11:59:59;;;;;;;1.90;1.67;;;17.10;99.90;;;;;;7389314;19;20146;-82
2022/09/24 12:02:44;;;;;;;2.15;1.92;;;17.00;99.90;;;;;;7393043;19;20143;-83
2022/09/24 12:05:27;;;;;;;2.72;2.28;;;17.00;99.90;;;;;;7392199;19;20158;-82
2022/09/24 12:08:07;;;;;;;2.72;2.20;;;17.00;99.90;;;;;;7391039;19;20166;-83
2022/09/24 12:10:38;;;;;;;3.05;2.05;;;17.00;99.90;;;;;;7391448;19;20142;-83
2022/09/24 12:13:32;;;;;;;4.07;2.28;;;17.10;99.90;;;;;;7393291;19;20622;-81
2022/09/24 12:16:09;;;;;;;4.20;2.33;;;17.10;99.90;;;;;;7391263;19;20131;-82
2022/09/24 12:19:19;;;;;;;2.90;2.60;;;17.20;99.90;;;;;;7389367;19;20134;-83
2022/09/24 12:21:48;;;;;;;3.58;2.47;;;17.20;99.90;;;;;;7389566;19;20146;-83
2022/09/24 12:24:52;;;;;;;2.50;2.20;;;17.20;99.90;;;;;;7390338;19;20174;-82
2022/09/24 12:27:33;;;;;;;3.42;2.40;;;17.20;99.90;;;;;;7389358;19;20214;-83
2022/09/24 12:33:21;;;;;;;2.88;2.45;;;17.10;99.90;;;;;;7391748;19;20142;-84
2022/09/24 12:36:03;;;;;;;4.25;2.50;;;17.10;99.90;;;;;;7392235;19;20160;-82
2022/09/24 12:38:37;;;;;;;4.50;2.65;;;17.10;99.90;;;;;;7389459;19;20587;-81
2022/09/24 12:41:15;;;;;;;4.55;2.83;;;17.10;99.90;;;;;;7390361;19;20142;-81
2022/09/24 12:43:46;;;;;;;4.95;2.88;;;17.30;99.90;;;;;;7388948;19;20146;-83
2022/09/24 12:46:26;;;;;;;3.83;3.25;;;17.00;99.90;;;;;;7391149;19;20130;-82
2022/09/24 12:48:54;;;;;;;5.78;2.78;;;17.10;99.90;;;;;;7389052;19;20135;-84
2022/09/24 12:51:23;;;;;;;3.15;2.70;;;17.10;99.90;;;;;;7387686;19;20161;-84
2022/09/24 12:53:59;;;;;;;3.22;2.53;;;17.10;99.90;;;;;;7391311;19;20135;-82
2022/09/24 12:56:28;;;;;;;4.28;3.10;;;17.00;99.90;;;;;;7390763;19;20614;-80
2022/09/24 12:58:55;;;;;;;4.32;3.25;;;17.10;99.90;;;;;;7389699;19;20135;-82
2022/09/24 13:01:26;;;;;;;5.70;3.10;;;17.20;99.90;;;;;;7389720;19;20126;-83
2022/09/24 13:04:26;;;;;;;6.93;3.97;;;17.40;99.90;;;;;;7389541;19;20608;-82
2022/09/24 13:06:54;;;;;;;6.97;4.95;;;17.30;99.90;;;;;;7386460;19;20173;-84
2022/09/24 13:09:40;;;;;;;5.47;4.30;;;17.30;99.90;;;;;;7384974;19;20166;-80
2022/09/24 13:12:22;;;;;;;4.07;3.70;;;17.30;99.90;;;;;;7385713;19;20131;-84
2022/09/24 13:15:00;;;;;;;5.63;3.85;;;17.30;99.90;;;;;;7384398;19;20134;-85
2022/09/24 13:17:26;;;;;;;6.28;4.35;;;17.50;99.90;;;;;;7390873;19;20133;-83
2022/09/24 13:19:58;;;;;;;6.00;3.65;;;17.50;99.90;;;;;;7390506;19;20130;-85
2022/09/24 13:22:33;;;;;;;5.45;3.90;;;17.60;99.90;;;;;;7389998;19;20135;-85
2022/09/24 13:25:08;;;;;;;4.43;3.78;;;17.50;99.90;;;;;;7389390;19;20257;-83
2022/09/24 13:27:40;;;;;;;4.47;3.75;;;17.40;99.90;;;;;;7391067;19;20486;-84